sensor_id;sensor_type;location;lat;lon;timestamp;pressure;altitude;pressure_sealevel;temperature;humidity
8451;BME280;4262;50.980;13.892;2024-03-02T00:01:36;86307.16;;;-142.97;59.48
8451;BME280;4262;50.980;13.892;2024-03-02T00:04:04;86198.78;;;-142.97;59.53
8451;BME280;4262;50.980;13.892;2024-03-02T00:06:34;86267.75;;;-142.97;59.75
8451;BME280;4262;50.980;13.892;2024-03-02T00:09:01;86238.19;;;-142.97;59.80
8451;BME280;4262;50.980;13.892;2024-03-02T00:11:28;86214.53;;;-142.97;59.36
8451;BME280;4262;50.980;13.892;2024-03-02T00:13:55;86177.09;;;-142.97;59.31
8451;BME280;4262;50.980;13.892;2024-03-02T00:16:21;86206.66;;;-142.97;59.30
8451;BME280;4262;50.980;13.892;2024-03-02T00:18:51;86242.13;;;-142.97;59.79
8451;BME280;4262;50.980;13.892;2024-03-02T00:21:18;86265.78;;;-142.97;59.96
8451;BME280;4262;50.980;13.892;2024-03-02T00:23:48;86226.38;;;-142.97;59.79
8451;BME280;4262;50.980;13.892;2024-03-02T00:26:15;86236.22;;;-142.97;59.65
8451;BME280;4262;50.980;13.892;2024-03-02T00:28:42;86222.44;;;-142.97;59.22
8451;BME280;4262;50.980;13.892;2024-03-02T00:31:11;86271.69;;;-142.97;59.09
8451;BME280;4262;50.980;13.892;2024-03-02T00:33:41;86226.38;;;-142.97;59.26
8451;BME280;4262;50.980;13.892;2024-03-02T00:36:10;86236.22;;;-142.97;59.28
8451;BME280;4262;50.980;13.892;2024-03-02T00:38:44;85909.16;;;-142.97;59.30
8451;BME280;4262;50.980;13.892;2024-03-02T00:41:20;86293.34;;;-142.97;59.65
8451;BME280;4262;50.980;13.892;2024-03-02T00:43:57;86265.78;;;-142.97;59.58
8451;BME280;4262;50.980;13.892;2024-03-02T00:46:26;86244.09;;;-142.97;59.94
8451;BME280;4262;50.980;13.892;2024-03-02T00:48:56;86218.50;;;-142.97;59.26
8451;BME280;4262;50.980;13.892;2024-03-02T00:51:27;86263.81;;;-142.97;60.25
8451;BME280;4262;50.980;13.892;2024-03-02T00:53:57;86277.59;;;-142.97;59.58
8451;BME280;4262;50.980;13.892;2024-03-02T00:56:25;86295.31;;;-142.97;59.92
8451;BME280;4262;50.980;13.892;2024-03-02T00:58:52;86275.63;;;-142.97;59.99
8451;BME280;4262;50.980;13.892;2024-03-02T01:01:19;86236.22;;;-142.97;60.22
8451;BME280;4262;50.980;13.892;2024-03-02T01:03:47;86244.09;;;-142.97;59.82
8451;BME280;4262;50.980;13.892;2024-03-02T01:06:14;86220.47;;;-142.97;59.29
8451;BME280;4262;50.980;13.892;2024-03-02T01:08:42;86222.44;;;-142.97;59.09
8451;BME280;4262;50.980;13.892;2024-03-02T01:11:10;86336.69;;;-142.97;59.97
8451;BME280;4262;50.980;13.892;2024-03-02T01:13:36;86236.22;;;-142.97;59.61
8451;BME280;4262;50.980;13.892;2024-03-02T01:16:03;86287.44;;;-142.97;59.72
8451;BME280;4262;50.980;13.892;2024-03-02T01:18:30;86350.50;;;-142.97;60.93
8451;BME280;4262;50.980;13.892;2024-03-02T01:20:57;86370.19;;;-142.97;61.21
8451;BME280;4262;50.980;13.892;2024-03-02T01:23:25;86340.66;;;-142.97;60.60
8451;BME280;4262;50.980;13.892;2024-03-02T01:25:53;86320.94;;;-142.97;60.02
8451;BME280;4262;50.980;13.892;2024-03-02T01:28:20;86307.16;;;-142.97;60.61
8451;BME280;4262;50.980;13.892;2024-03-02T01:30:48;86315.03;;;-142.97;60.26
8451;BME280;4262;50.980;13.892;2024-03-02T01:33:15;86246.06;;;-142.97;59.81
8451;BME280;4262;50.980;13.892;2024-03-02T01:35:42;86246.06;;;-142.97;59.90
8451;BME280;4262;50.980;13.892;2024-03-02T01:38:09;86200.75;;;-142.97;59.08
8451;BME280;4262;50.980;13.892;2024-03-02T01:40:38;85913.09;;;-142.97;58.42
8451;BME280;4262;50.980;13.892;2024-03-02T01:43:06;86244.09;;;-142.97;59.19
8451;BME280;4262;50.980;13.892;2024-03-02T01:45:36;86263.81;;;-142.97;59.39
8451;BME280;4262;50.980;13.892;2024-03-02T01:48:04;86291.38;;;-142.97;60.47
8451;BME280;4262;50.980;13.892;2024-03-02T01:50:31;86283.50;;;-142.97;60.30
8451;BME280;4262;50.980;13.892;2024-03-02T01:52:59;86283.50;;;-142.97;60.18
8451;BME280;4262;50.980;13.892;2024-03-02T01:55:27;86273.66;;;-142.97;59.95
8451;BME280;4262;50.980;13.892;2024-03-02T01:57:55;86279.56;;;-142.97;59.72
8451;BME280;4262;50.980;13.892;2024-03-02T02:00:25;86338.69;;;-142.97;60.85
8451;BME280;4262;50.980;13.892;2024-03-02T02:02:52;86362.31;;;-142.97;61.03
8451;BME280;4262;50.980;13.892;2024-03-02T02:05:20;86407.63;;;-142.97;61.14
8451;BME280;4262;50.980;13.892;2024-03-02T02:07:47;86326.84;;;-142.97;61.15
8451;BME280;4262;50.980;13.892;2024-03-02T02:10:14;86330.78;;;-142.97;60.87
8451;BME280;4262;50.980;13.892;2024-03-02T02:12:40;86346.56;;;-142.97;61.00
8451;BME280;4262;50.980;13.892;2024-03-02T02:15:25;86315.03;;;-142.97;60.68
8451;BME280;4262;50.980;13.892;2024-03-02T02:17:52;86291.38;;;-142.97;60.18
8451;BME280;4262;50.980;13.892;2024-03-02T02:20:19;86332.75;;;-142.97;60.70
8451;BME280;4262;50.980;13.892;2024-03-02T02:22:55;86322.91;;;-142.97;60.52
8451;BME280;4262;50.980;13.892;2024-03-02T02:25:21;86330.78;;;-142.97;60.53
8451;BME280;4262;50.980;13.892;2024-03-02T02:27:48;86305.19;;;-142.97;60.26
8451;BME280;4262;50.980;13.892;2024-03-02T02:30:18;86387.94;;;-142.97;60.50
8451;BME280;4262;50.980;13.892;2024-03-02T02:32:47;86293.34;;;-142.97;60.45
8451;BME280;4262;50.980;13.892;2024-03-02T02:35:16;86275.63;;;-142.97;60.17
8451;BME280;4262;50.980;13.892;2024-03-02T02:37:43;86265.78;;;-142.97;59.77
8451;BME280;4262;50.980;13.892;2024-03-02T02:40:12;86250.00;;;-142.97;59.91
8451;BME280;4262;50.980;13.892;2024-03-02T02:42:39;86285.47;;;-142.97;60.25
8451;BME280;4262;50.980;13.892;2024-03-02T02:45:06;86358.38;;;-142.97;61.06
8451;BME280;4262;50.980;13.892;2024-03-02T02:47:33;86301.25;;;-142.97;60.54
8451;BME280;4262;50.980;13.892;2024-03-02T02:50:02;86309.13;;;-142.97;61.07
8451;BME280;4262;50.980;13.892;2024-03-02T02:52:32;86352.47;;;-142.97;60.69
8451;BME280;4262;50.980;13.892;2024-03-02T02:55:02;86293.34;;;-142.97;60.44
8451;BME280;4262;50.980;13.892;2024-03-02T02:57:31;86271.69;;;-142.97;59.81
8451;BME280;4262;50.980;13.892;2024-03-02T03:00:02;86293.34;;;-142.97;60.48
8451;BME280;4262;50.980;13.892;2024-03-02T03:02:37;86275.63;;;-142.97;60.27
8451;BME280;4262;50.980;13.892;2024-03-02T03:05:05;86320.94;;;-142.97;60.64
8451;BME280;4262;50.980;13.892;2024-03-02T03:07:32;86299.25;;;-142.97;59.77
8451;BME280;4262;50.980;13.892;2024-03-02T03:10:00;86315.03;;;-142.97;59.97
8451;BME280;4262;50.980;13.892;2024-03-02T03:12:29;86295.31;;;-142.97;60.13
8451;BME280;4262;50.980;13.892;2024-03-02T03:14:58;86259.88;;;-142.97;60.54
8451;BME280;4262;50.980;13.892;2024-03-02T03:17:25;86275.63;;;-142.97;60.42
8451;BME280;4262;50.980;13.892;2024-03-02T03:19:52;86279.56;;;-142.97;60.40
8451;BME280;4262;50.980;13.892;2024-03-02T03:22:22;86352.47;;;-142.97;60.63
8451;BME280;4262;50.980;13.892;2024-03-02T03:24:49;86346.56;;;-142.97;60.54
8451;BME280;4262;50.980;13.892;2024-03-02T03:27:17;86391.88;;;-142.97;61.39
8451;BME280;4262;50.980;13.892;2024-03-02T03:29:45;86411.56;;;-142.97;61.63
8451;BME280;4262;50.980;13.892;2024-03-02T03:32:13;86421.44;;;-142.97;61.63
8451;BME280;4262;50.980;13.892;2024-03-02T03:34:40;86443.09;;;-142.97;61.75
8451;BME280;4262;50.980;13.892;2024-03-02T03:37:07;86429.31;;;-142.97;61.54
8451;BME280;4262;50.980;13.892;2024-03-02T03:39:34;86443.09;;;-142.97;62.14
8451;BME280;4262;50.980;13.892;2024-03-02T03:42:03;86334.72;;;-142.97;61.03
8451;BME280;4262;50.980;13.892;2024-03-02T03:44:30;86281.53;;;-142.97;60.30
8451;BME280;4262;50.980;13.892;2024-03-02T03:46:57;86293.34;;;-142.97;60.08
8451;BME280;4262;50.980;13.892;2024-03-02T03:49:25;86224.41;;;-142.97;59.59
8451;BME280;4262;50.980;13.892;2024-03-02T03:51:52;86222.44;;;-142.97;59.09
8451;BME280;4262;50.980;13.892;2024-03-02T03:54:19;86228.34;;;-142.97;59.29
8451;BME280;4262;50.980;13.892;2024-03-02T03:56:46;86307.16;;;-142.97;59.99
8451;BME280;4262;50.980;13.892;2024-03-02T03:59:12;86305.19;;;-142.97;60.71
8451;BME280;4262;50.980;13.892;2024-03-02T04:01:39;86317.00;;;-142.97;60.46
8451;BME280;4262;50.980;13.892;2024-03-02T04:04:09;86370.19;;;-142.97;60.65
8451;BME280;4262;50.980;13.892;2024-03-02T04:06:37;86378.06;;;-142.97;60.81
8451;BME280;4262;50.980;13.892;2024-03-02T04:09:04;86429.31;;;-142.97;61.70
8451;BME280;4262;50.980;13.892;2024-03-02T04:11:31;86395.81;;;-142.97;61.27
8451;BME280;4262;50.980;13.892;2024-03-02T04:13:58;86389.91;;;-142.97;61.42
8451;BME280;4262;50.980;13.892;2024-03-02T04:16:24;86330.78;;;-142.97;60.71
8451;BME280;4262;50.980;13.892;2024-03-02T04:18:51;86307.16;;;-142.97;60.47
8451;BME280;4262;50.980;13.892;2024-03-02T04:21:18;86291.38;;;-142.97;60.06
8451;BME280;4262;50.980;13.892;2024-03-02T04:23:45;86259.88;;;-142.97;59.60
8451;BME280;4262;50.980;13.892;2024-03-02T04:26:12;86255.91;;;-142.97;58.99
8451;BME280;4262;50.980;13.892;2024-03-02T04:28:40;86220.47;;;-142.97;59.42
8451;BME280;4262;50.980;13.892;2024-03-02T04:31:07;86222.44;;;-142.97;59.31
8451;BME280;4262;50.980;13.892;2024-03-02T04:33:34;86232.28;;;-142.97;59.01
8451;BME280;4262;50.980;13.892;2024-03-02T04:36:01;86218.50;;;-142.97;58.58
8451;BME280;4262;50.980;13.892;2024-03-02T04:38:27;86255.91;;;-142.97;59.15
8451;BME280;4262;50.980;13.892;2024-03-02T04:40:55;86253.94;;;-142.97;59.11
8451;BME280;4262;50.980;13.892;2024-03-02T04:43:22;86271.69;;;-142.97;59.15
8451;BME280;4262;50.980;13.892;2024-03-02T04:45:49;86273.66;;;-142.97;59.00
8451;BME280;4262;50.980;13.892;2024-03-02T04:48:16;86251.97;;;-142.97;58.88
8451;BME280;4262;50.980;13.892;2024-03-02T04:50:42;86267.75;;;-142.97;59.17
8451;BME280;4262;50.980;13.892;2024-03-02T04:53:09;86317.00;;;-142.97;59.82
8451;BME280;4262;50.980;13.892;2024-03-02T04:55:36;86372.16;;;-142.97;60.39
8451;BME280;4262;50.980;13.892;2024-03-02T04:58:18;86417.50;;;-142.97;60.92
8451;BME280;4262;50.980;13.892;2024-03-02T05:00:45;86437.19;;;-142.97;61.50
8451;BME280;4262;50.980;13.892;2024-03-02T05:03:12;86486.44;;;-142.97;62.07
8451;BME280;4262;50.980;13.892;2024-03-02T05:05:39;86563.28;;;-142.97;62.60
8451;BME280;4262;50.980;13.892;2024-03-02T05:08:06;86616.50;;;-142.97;63.21
8451;BME280;4262;50.980;13.892;2024-03-02T05:10:33;86567.25;;;-142.97;62.53
8451;BME280;4262;50.980;13.892;2024-03-02T05:12:59;86691.38;;;-142.97;63.23
8451;BME280;4262;50.980;13.892;2024-03-02T05:15:28;86516.00;;;-142.97;62.36
8451;BME280;4262;50.980;13.892;2024-03-02T05:17:54;86561.31;;;-142.97;62.88
8451;BME280;4262;50.980;13.892;2024-03-02T05:20:22;86604.69;;;-142.97;63.25
8451;BME280;4262;50.980;13.892;2024-03-02T05:22:49;86598.75;;;-142.97;63.01
8451;BME280;4262;50.980;13.892;2024-03-02T05:25:16;86677.59;;;-142.97;63.41
8451;BME280;4262;50.980;13.892;2024-03-02T05:27:43;86275.63;;;-142.97;63.10
8451;BME280;4262;50.980;13.892;2024-03-02T05:30:10;86657.88;;;-142.97;63.15
8451;BME280;4262;50.980;13.892;2024-03-02T05:32:39;86555.41;;;-142.97;62.63
8451;BME280;4262;50.980;13.892;2024-03-02T05:35:07;86510.09;;;-142.97;62.12
8451;BME280;4262;50.980;13.892;2024-03-02T05:37:37;86472.66;;;-142.97;61.74
8451;BME280;4262;50.980;13.892;2024-03-02T05:40:05;86472.66;;;-142.97;61.44
8451;BME280;4262;50.980;13.892;2024-03-02T05:42:33;86431.28;;;-142.97;61.39
8451;BME280;4262;50.980;13.892;2024-03-02T05:45:00;86423.41;;;-142.97;60.91
8451;BME280;4262;50.980;13.892;2024-03-02T05:47:26;86364.28;;;-142.97;60.42
8451;BME280;4262;50.980;13.892;2024-03-02T05:49:55;86350.50;;;-142.97;60.40
8451;BME280;4262;50.980;13.892;2024-03-02T05:52:22;86350.50;;;-142.97;60.10
8451;BME280;4262;50.980;13.892;2024-03-02T05:54:48;86332.75;;;-142.97;60.21
8451;BME280;4262;50.980;13.892;2024-03-02T05:57:15;86360.34;;;-142.97;60.29
8451;BME280;4262;50.980;13.892;2024-03-02T05:59:59;86309.13;;;-142.97;59.89
8451;BME280;4262;50.980;13.892;2024-03-02T06:02:26;86342.63;;;-142.97;60.19
8451;BME280;4262;50.980;13.892;2024-03-02T06:04:55;86289.41;;;-142.97;59.69
8451;BME280;4262;50.980;13.892;2024-03-02T06:07:22;86279.56;;;-142.97;59.94
8451;BME280;4262;50.980;13.892;2024-03-02T06:09:49;86340.66;;;-142.97;60.02
8451;BME280;4262;50.980;13.892;2024-03-02T06:12:18;86334.72;;;-142.97;60.06
8451;BME280;4262;50.980;13.892;2024-03-02T06:14:45;86289.41;;;-142.97;59.84
8451;BME280;4262;50.980;13.892;2024-03-02T06:17:12;86255.91;;;-142.97;59.21
8451;BME280;4262;50.980;13.892;2024-03-02T06:19:39;86244.09;;;-142.97;58.71
8451;BME280;4262;50.980;13.892;2024-03-02T06:22:07;86161.34;;;-142.97;58.27
8451;BME280;4262;50.980;13.892;2024-03-02T06:24:35;86234.25;;;-142.97;58.46
8451;BME280;4262;50.980;13.892;2024-03-02T06:27:02;86263.81;;;-142.97;59.37
8451;BME280;4262;50.980;13.892;2024-03-02T06:29:32;86344.59;;;-142.97;58.98
8451;BME280;4262;50.980;13.892;2024-03-02T06:31:59;86214.53;;;-142.97;58.77
8451;BME280;4262;50.980;13.892;2024-03-02T06:34:26;86190.91;;;-142.97;58.37
8451;BME280;4262;50.980;13.892;2024-03-02T06:36:53;86183.03;;;-142.97;57.84
8451;BME280;4262;50.980;13.892;2024-03-02T06:39:21;86165.28;;;-142.97;58.05
8451;BME280;4262;50.980;13.892;2024-03-02T06:41:48;86147.56;;;-142.97;57.29
8451;BME280;4262;50.980;13.892;2024-03-02T06:44:15;86175.13;;;-142.97;57.33
8451;BME280;4262;50.980;13.892;2024-03-02T06:46:41;86218.50;;;-142.97;57.70
8451;BME280;4262;50.980;13.892;2024-03-02T06:49:08;86214.53;;;-142.97;57.80
8451;BME280;4262;50.980;13.892;2024-03-02T06:51:36;86177.09;;;-142.97;57.94
8451;BME280;4262;50.980;13.892;2024-03-02T06:54:03;86208.63;;;-142.97;57.09
8451;BME280;4262;50.980;13.892;2024-03-02T06:56:31;85944.63;;;-142.97;57.21
8451;BME280;4262;50.980;13.892;2024-03-02T06:58:58;86177.09;;;-142.97;57.02
8451;BME280;4262;50.980;13.892;2024-03-02T07:01:25;86198.78;;;-142.97;57.34
8451;BME280;4262;50.980;13.892;2024-03-02T07:03:53;86159.38;;;-142.97;56.83
8451;BME280;4262;50.980;13.892;2024-03-02T07:06:20;86198.78;;;-142.97;57.12
8451;BME280;4262;50.980;13.892;2024-03-02T07:08:47;86153.47;;;-142.97;56.53
8451;BME280;4262;50.980;13.892;2024-03-02T07:11:14;86157.41;;;-142.97;56.61
8451;BME280;4262;50.980;13.892;2024-03-02T07:13:42;86155.44;;;-142.97;56.73
8451;BME280;4262;50.980;13.892;2024-03-02T07:16:09;86173.16;;;-142.97;56.68
8451;BME280;4262;50.980;13.892;2024-03-02T07:19:03;86179.09;;;-142.97;56.59
8451;BME280;4262;50.980;13.892;2024-03-02T07:21:29;86165.28;;;-142.97;56.78
8451;BME280;4262;50.980;13.892;2024-03-02T07:23:57;86246.06;;;-142.97;57.60
8451;BME280;4262;50.980;13.892;2024-03-02T07:26:25;86287.44;;;-142.97;58.42
8451;BME280;4262;50.980;13.892;2024-03-02T07:28:53;86137.72;;;-142.97;58.96
8451;BME280;4262;50.980;13.892;2024-03-02T07:31:20;86307.16;;;-142.97;58.72
8451;BME280;4262;50.980;13.892;2024-03-02T07:33:47;86263.81;;;-142.97;58.42
8451;BME280;4262;50.980;13.892;2024-03-02T07:36:13;86259.88;;;-142.97;58.37
8451;BME280;4262;50.980;13.892;2024-03-02T07:38:40;86263.81;;;-142.97;58.27
8451;BME280;4262;50.980;13.892;2024-03-02T07:41:07;86279.56;;;-142.97;58.02
8451;BME280;4262;50.980;13.892;2024-03-02T07:43:34;86224.41;;;-142.97;58.03
8451;BME280;4262;50.980;13.892;2024-03-02T07:46:02;86204.69;;;-142.97;58.00
8451;BME280;4262;50.980;13.892;2024-03-02T07:48:29;86240.16;;;-142.97;57.31
8451;BME280;4262;50.980;13.892;2024-03-02T07:50:56;85948.56;;;-142.97;57.24
8451;BME280;4262;50.980;13.892;2024-03-02T07:53:22;86301.25;;;-142.97;57.43
8451;BME280;4262;50.980;13.892;2024-03-02T07:55:49;86214.53;;;-142.97;57.49
8451;BME280;4262;50.980;13.892;2024-03-02T07:58:16;86242.13;;;-142.97;57.48
8451;BME280;4262;50.980;13.892;2024-03-02T08:00:45;86212.56;;;-142.97;57.20
8451;BME280;4262;50.980;13.892;2024-03-02T08:03:13;86246.06;;;-142.97;57.41
8451;BME280;4262;50.980;13.892;2024-03-02T08:05:40;86188.94;;;-142.97;57.07
8451;BME280;4262;50.980;13.892;2024-03-02T08:08:07;86216.50;;;-142.97;57.51
8451;BME280;4262;50.980;13.892;2024-03-02T08:10:33;86206.66;;;-142.97;57.13
8451;BME280;4262;50.980;13.892;2024-03-02T08:13:01;86104.22;;;-142.97;56.73
8451;BME280;4262;50.980;13.892;2024-03-02T08:15:28;86194.84;;;-142.97;56.97
8451;BME280;4262;50.980;13.892;2024-03-02T08:17:55;86151.50;;;-142.97;56.49
8451;BME280;4262;50.980;13.892;2024-03-02T08:20:23;86188.94;;;-142.97;56.27
8451;BME280;4262;50.980;13.892;2024-03-02T08:22:50;86175.13;;;-142.97;56.53
8451;BME280;4262;50.980;13.892;2024-03-02T08:25:17;86159.38;;;-142.97;56.05
8451;BME280;4262;50.980;13.892;2024-03-02T08:27:44;86181.06;;;-142.97;56.95
8451;BME280;4262;50.980;13.892;2024-03-02T08:30:12;86190.91;;;-142.97;56.60
8451;BME280;4262;50.980;13.892;2024-03-02T08:32:39;86190.91;;;-142.97;56.99
8451;BME280;4262;50.980;13.892;2024-03-02T08:35:06;86206.66;;;-142.97;57.38
8451;BME280;4262;50.980;13.892;2024-03-02T08:37:37;86257.88;;;-142.97;57.36
8451;BME280;4262;50.980;13.892;2024-03-02T08:40:06;86265.78;;;-142.97;58.35
8451;BME280;4262;50.980;13.892;2024-03-02T08:42:34;86236.22;;;-142.97;57.86
8451;BME280;4262;50.980;13.892;2024-03-02T08:45:01;86204.69;;;-142.97;57.10
8451;BME280;4262;50.980;13.892;2024-03-02T08:47:29;86145.59;;;-142.97;56.83
8451;BME280;4262;50.980;13.892;2024-03-02T08:49:56;86230.31;;;-142.97;57.16
8451;BME280;4262;50.980;13.892;2024-03-02T08:52:22;86202.72;;;-142.97;56.23
8451;BME280;4262;50.980;13.892;2024-03-02T08:54:50;86283.50;;;-142.97;56.45
8451;BME280;4262;50.980;13.892;2024-03-02T08:57:17;86171.19;;;-142.97;55.83
8451;BME280;4262;50.980;13.892;2024-03-02T08:59:44;86080.56;;;-142.97;55.18
8451;BME280;4262;50.980;13.892;2024-03-02T09:02:11;86074.66;;;-142.97;54.55
8451;BME280;4262;50.980;13.892;2024-03-02T09:04:38;86039.19;;;-142.97;54.38
8451;BME280;4262;50.980;13.892;2024-03-02T09:07:05;86045.09;;;-142.97;54.03
8451;BME280;4262;50.980;13.892;2024-03-02T09:09:32;86047.06;;;-142.97;54.20
8451;BME280;4262;50.980;13.892;2024-03-02T09:12:01;86047.06;;;-142.97;54.58
8451;BME280;4262;50.980;13.892;2024-03-02T09:14:27;85995.84;;;-142.97;53.97
8451;BME280;4262;50.980;13.892;2024-03-02T09:16:54;86049.03;;;-142.97;53.35
8451;BME280;4262;50.980;13.892;2024-03-02T09:19:21;86023.44;;;-142.97;54.53
8451;BME280;4262;50.980;13.892;2024-03-02T09:21:48;86070.72;;;-142.97;54.36
8451;BME280;4262;50.980;13.892;2024-03-02T09:24:16;86054.97;;;-142.97;53.63
8451;BME280;4262;50.980;13.892;2024-03-02T09:26:42;86098.31;;;-142.97;53.94
8451;BME280;4262;50.980;13.892;2024-03-02T09:29:11;86078.59;;;-142.97;54.50
8451;BME280;4262;50.980;13.892;2024-03-02T09:31:39;86076.63;;;-142.97;54.72
8451;BME280;4262;50.980;13.892;2024-03-02T09:34:06;86076.63;;;-142.97;53.83
8451;BME280;4262;50.980;13.892;2024-03-02T09:36:33;86110.13;;;-142.97;54.02
8451;BME280;4262;50.980;13.892;2024-03-02T09:38:59;86098.31;;;-142.97;54.48
8451;BME280;4262;50.980;13.892;2024-03-02T09:41:26;86161.34;;;-142.97;54.83
8451;BME280;4262;50.980;13.892;2024-03-02T09:43:54;86118.00;;;-142.97;54.80
8451;BME280;4262;50.980;13.892;2024-03-02T09:46:22;86114.06;;;-142.97;54.40
8451;BME280;4262;50.980;13.892;2024-03-02T09:48:49;85950.53;;;-142.97;54.58
8451;BME280;4262;50.980;13.892;2024-03-02T09:51:16;86108.16;;;-142.97;54.40
8451;BME280;4262;50.980;13.892;2024-03-02T09:53:45;86192.88;;;-142.97;53.97
8451;BME280;4262;50.980;13.892;2024-03-02T09:56:14;86127.84;;;-142.97;54.28
8451;BME280;4262;50.980;13.892;2024-03-02T09:58:41;86145.59;;;-142.97;54.10
8451;BME280;4262;50.980;13.892;2024-03-02T10:01:09;86153.47;;;-142.97;54.12
8451;BME280;4262;50.980;13.892;2024-03-02T10:03:38;86064.81;;;-142.97;53.68
8451;BME280;4262;50.980;13.892;2024-03-02T10:06:21;86080.56;;;-142.97;53.63
8451;BME280;4262;50.980;13.892;2024-03-02T10:08:49;85861.88;;;-142.97;54.01
8451;BME280;4262;50.980;13.892;2024-03-02T10:11:29;86084.50;;;-142.97;53.73
8451;BME280;4262;50.980;13.892;2024-03-02T10:14:07;86088.44;;;-142.97;53.25
8451;BME280;4262;50.980;13.892;2024-03-02T10:16:35;86037.22;;;-142.97;53.16
8451;BME280;4262;50.980;13.892;2024-03-02T10:19:20;85999.78;;;-142.97;53.18
8451;BME280;4262;50.980;13.892;2024-03-02T10:21:48;85982.06;;;-142.97;52.50
8451;BME280;4262;50.980;13.892;2024-03-02T10:24:14;85966.31;;;-142.97;53.07
8451;BME280;4262;50.980;13.892;2024-03-02T10:26:41;85919.03;;;-142.97;51.49
8451;BME280;4262;50.980;13.892;2024-03-02T10:29:08;85773.25;;;-142.97;51.29
8451;BME280;4262;50.980;13.892;2024-03-02T10:31:37;85714.13;;;-142.97;50.05
8451;BME280;4262;50.980;13.892;2024-03-02T10:34:04;85601.84;;;-142.97;49.72
8451;BME280;4262;50.980;13.892;2024-03-02T10:36:33;85440.31;;;-142.97;48.94
8451;BME280;4262;50.980;13.892;2024-03-02T10:39:02;85416.69;;;-142.97;47.34
8451;BME280;4262;50.980;13.892;2024-03-02T10:41:32;85243.34;;;-142.97;46.92
8451;BME280;4262;50.980;13.892;2024-03-02T10:44:02;85103.50;;;-142.97;46.10
8451;BME280;4262;50.980;13.892;2024-03-02T10:46:29;84684.00;;;-142.97;44.63
8451;BME280;4262;50.980;13.892;2024-03-02T10:48:57;84607.19;;;-142.97;42.40
8451;BME280;4262;50.980;13.892;2024-03-02T10:51:24;84485.09;;;-142.97;40.98
8451;BME280;4262;50.980;13.892;2024-03-02T10:53:52;84402.38;;;-142.97;40.40
8451;BME280;4262;50.980;13.892;2024-03-02T10:56:22;84764.75;;;-142.97;39.17
8451;BME280;4262;50.980;13.892;2024-03-02T10:58:55;84477.22;;;-142.97;39.70
8451;BME280;4262;50.980;13.892;2024-03-02T11:01:25;84233.03;;;-142.97;38.98
8451;BME280;4262;50.980;13.892;2024-03-02T11:03:52;84235.00;;;-142.97;37.62
8451;BME280;4262;50.980;13.892;2024-03-02T11:06:20;84370.88;;;-142.97;36.82
8451;BME280;4262;50.980;13.892;2024-03-02T11:08:49;84526.44;;;-142.97;37.44
8451;BME280;4262;50.980;13.892;2024-03-02T11:11:28;84715.50;;;-142.97;37.37
8451;BME280;4262;50.980;13.892;2024-03-02T11:13:57;84520.53;;;-142.97;37.86
8451;BME280;4262;50.980;13.892;2024-03-02T11:16:35;84368.91;;;-142.97;38.82
8451;BME280;4262;50.980;13.892;2024-03-02T11:19:04;84380.72;;;-142.97;38.54
8451;BME280;4262;50.980;13.892;2024-03-02T11:21:32;84483.13;;;-142.97;39.22
8451;BME280;4262;50.980;13.892;2024-03-02T11:23:59;84747.03;;;-142.97;38.10
8451;BME280;4262;50.980;13.892;2024-03-02T11:26:38;84337.41;;;-142.97;38.71
8451;BME280;4262;50.980;13.892;2024-03-02T11:29:05;84191.69;;;-142.97;37.45
8451;BME280;4262;50.980;13.892;2024-03-02T11:31:57;84231.06;;;-142.97;35.94
8451;BME280;4262;50.980;13.892;2024-03-02T11:34:29;84069.59;;;-142.97;36.07
8451;BME280;4262;50.980;13.892;2024-03-02T11:36:56;84286.22;;;-142.97;36.53
8451;BME280;4262;50.980;13.892;2024-03-02T11:39:24;84361.03;;;-142.97;36.48
8451;BME280;4262;50.980;13.892;2024-03-02T11:41:52;84416.19;;;-142.97;36.42
8451;BME280;4262;50.980;13.892;2024-03-02T11:44:19;84428.00;;;-142.97;36.20
8451;BME280;4262;50.980;13.892;2024-03-02T11:46:46;84760.81;;;-142.97;36.45
8451;BME280;4262;50.980;13.892;2024-03-02T11:49:36;85022.75;;;-142.97;38.10
8451;BME280;4262;50.980;13.892;2024-03-02T11:52:05;85099.56;;;-142.97;38.80
8451;BME280;4262;50.980;13.892;2024-03-02T11:54:33;85184.25;;;-142.97;39.64
8451;BME280;4262;50.980;13.892;2024-03-02T11:57:03;85249.25;;;-142.97;39.84
8451;BME280;4262;50.980;13.892;2024-03-02T11:59:30;85359.56;;;-142.97;40.18
8451;BME280;4262;50.980;13.892;2024-03-02T12:01:58;85430.47;;;-142.97;41.20
8451;BME280;4262;50.980;13.892;2024-03-02T12:04:25;85414.72;;;-142.97;41.49
8451;BME280;4262;50.980;13.892;2024-03-02T12:06:56;85515.19;;;-142.97;41.85
8451;BME280;4262;50.980;13.892;2024-03-02T12:09:25;85527.00;;;-142.97;42.18
8451;BME280;4262;50.980;13.892;2024-03-02T12:12:11;85582.16;;;-142.97;42.69
8451;BME280;4262;50.980;13.892;2024-03-02T12:14:50;85619.59;;;-142.97;42.48
8451;BME280;4262;50.980;13.892;2024-03-02T12:17:17;85519.13;;;-142.97;42.46
8451;BME280;4262;50.980;13.892;2024-03-02T12:19:44;85493.50;;;-142.97;42.28
8451;BME280;4262;50.980;13.892;2024-03-02T12:22:12;85467.91;;;-142.97;41.97
8451;BME280;4262;50.980;13.892;2024-03-02T12:24:38;85404.88;;;-142.97;42.12
8451;BME280;4262;50.980;13.892;2024-03-02T12:27:05;85383.19;;;-142.97;41.84
8451;BME280;4262;50.980;13.892;2024-03-02T12:29:34;85428.50;;;-142.97;41.73
8451;BME280;4262;50.980;13.892;2024-03-02T12:32:01;85426.53;;;-142.97;41.93
8451;BME280;4262;50.980;13.892;2024-03-02T12:34:28;85493.50;;;-142.97;42.07
8451;BME280;4262;50.980;13.892;2024-03-02T12:36:55;85479.72;;;-142.97;42.11
8451;BME280;4262;50.980;13.892;2024-03-02T12:39:22;85463.97;;;-142.97;42.38
8451;BME280;4262;50.980;13.892;2024-03-02T12:41:50;85430.47;;;-142.97;42.01
8451;BME280;4262;50.980;13.892;2024-03-02T12:44:17;85499.41;;;-142.97;41.98
8451;BME280;4262;50.980;13.892;2024-03-02T12:46:46;85511.25;;;-142.97;42.16
8451;BME280;4262;50.980;13.892;2024-03-02T12:49:14;85501.38;;;-142.97;42.07
8451;BME280;4262;50.980;13.892;2024-03-02T12:51:42;85483.66;;;-142.97;42.16
8451;BME280;4262;50.980;13.892;2024-03-02T12:54:10;85481.69;;;-142.97;42.55
8451;BME280;4262;50.980;13.892;2024-03-02T12:56:37;85538.81;;;-142.97;42.34